Terminal Aerodrome Forecast
Issued by NWS

Home | Current Version | Previous Version | Text Only | Print | Product List | Glossary On
Versions: 1 2 3 4 5 6 7 8 9 10 11 12 13 14 15 16 17 18 19 20 21 22
000
FTUS43 KAPX 181137
TAFPLN
TAF
KPLN 181137Z 1812/1912 27010G18KT P6SM VCSH OVC012
      TEMPO 1812/1815 4SM -RA OVC007
     FM181500 28013G22KT P6SM VCSH OVC015
     FM182100 28015G24KT P6SM OVC025
     FM190200 29011G21KT P6SM BKN040
     FM190600 30008KT P6SM BKN040=

USA.gov is the U.S. government's official web portal to all federal, state and local government web resources and services.